Time;durP1;ratioP1;P1;durP2;ratioP2;P2;SDS_P1;SDS_P2;PMS_P1;PMS_P2;Temp;Humidity;BMP_temperature;BMP_pressure;BME280_temperature;BME280_humidity;BME280_pressure;Samples;Min_cycle;Max_cycle;Signal;HPM_P1;HPM_P2
2022/07/13 00:00:52;;;;;;;3.35;3.13;;;;;;;;;;10470048;28;20736;-79
2022/07/13 00:05:52;;;;;;;3.58;3.22;;;;;;;;;;10451599;28;20107;-80
2022/07/13 00:10:53;;;;;;;3.60;3.30;;;;;;;;;;10470729;28;20064;-80
2022/07/13 00:15:54;;;;;;;3.53;3.22;;;;;;;;;;10459476;28;20140;-80
2022/07/13 00:20:57;;;;;;;3.63;3.33;;;;;;;;;;10496432;28;20124;-80
2022/07/13 00:25:57;;;;;;;3.63;3.33;;;;;;;;;;10441421;28;20059;-81
2022/07/13 00:31:00;;;;;;;3.80;3.40;;;;;;;;;;10469395;28;20041;-80
2022/07/13 00:36:02;;;;;;;3.60;3.30;;;;;;;;;;10447008;28;20057;-80
2022/07/13 00:41:05;;;;;;;3.35;3.05;;;;;;;;;;10469267;28;20048;-82
2022/07/13 00:46:08;;;;;;;3.67;3.35;;;;;;;;;;10469407;28;20055;-81
2022/07/13 00:51:08;;;;;;;;;;;;;;;;;;10484902;28;20033;-80
2022/07/13 00:56:10;;;;;;;3.60;3.30;;;;;;;;;;10478288;28;19900;-80
2022/07/13 01:01:15;;;;;;;3.20;2.90;;;;;;;;;;10496900;28;20056;-81
2022/07/13 01:06:22;;;;;;;3.60;3.30;;;;;;;;;;10467529;28;20076;-84
2022/07/13 01:11:24;;;;;;;3.70;3.33;;;;;;;;;;10464160;28;20044;-83
2022/07/13 01:16:28;;;;;;;3.88;3.50;;;;;;;;;;10471611;28;20044;-82
2022/07/13 01:21:29;;;;;;;4.00;3.70;;;;;;;;;;10480019;28;20064;-82
2022/07/13 01:26:31;;;;;;;;;;;;;;;;;;10469201;28;20037;-82
2022/07/13 01:31:36;;;;;;;3.40;2.93;;;;;;;;;;10472647;28;19938;-82
2022/07/13 01:36:37;;;;;;;4.47;3.45;;;;;;;;;;10466892;28;20279;-83
2022/07/13 01:41:38;;;;;;;4.30;3.60;;;;;;;;;;10437426;28;20048;-83
2022/07/13 01:46:40;;;;;;;3.78;3.35;;;;;;;;;;10450836;28;20041;-84
2022/07/13 01:51:51;;;;;;;;;;;;;;;;;;;;;
2022/07/13 01:57:30;;;;;;;3.78;3.47;;;;;;;;;;10443728;28;20439;-86
2022/07/13 02:03:20;;;;;;;3.60;3.30;;;;;;;;;;10436305;28;20519;-82
2022/07/13 02:08:37;;;;;;;3.53;3.22;;;;;;;;;;10424832;28;20205;-82
2022/07/13 02:13:47;;;;;;;3.83;3.53;;;;;;;;;;10434597;28;20559;-83
2022/07/13 02:18:48;;;;;;;3.88;3.38;;;;;;;;;;10437133;28;20048;-83
2022/07/13 02:23:49;;;;;;;3.78;3.33;;;;;;;;;;10436997;28;20045;-81
2022/07/13 02:28:54;;;;;;;3.55;3.25;;;;;;;;;;10452834;28;20044;-85
2022/07/13 02:33:58;;;;;;;4.25;3.58;;;;;;;;;;10442685;28;20049;-82
2022/07/13 02:39:04;;;;;;;3.97;3.65;;;;;;;;;;10439592;28;20103;-82
2022/07/13 02:44:06;;;;;;;4.82;3.67;;;;;;;;;;10452143;28;20072;-84
2022/07/13 02:49:08;;;;;;;3.53;3.25;;;;;;;;;;10455684;28;20034;-83
2022/07/13 02:54:10;;;;;;;3.47;3.17;;;;;;;;;;10451010;28;20040;-83
2022/07/13 02:59:16;;;;;;;3.83;3.50;;;;;;;;;;10470282;28;20112;-82
2022/07/13 03:04:19;;;;;;;3.70;3.40;;;;;;;;;;10463926;28;20052;-79
2022/07/13 03:09:20;;;;;;;3.55;3.28;;;;;;;;;;10487980;28;20294;-79
2022/07/13 03:14:21;;;;;;;2.85;2.65;;;;;;;;;;10489897;28;20037;-80
2022/07/13 03:19:22;;;;;;;3.33;3.10;;;;;;;;;;10441771;28;20080;-80
2022/07/13 03:24:23;;;;;;;3.42;3.13;;;;;;;;;;10460378;28;20444;-80
2022/07/13 03:29:25;;;;;;;3.67;3.38;;;;;;;;;;10478455;28;20049;-81
2022/07/13 03:34:27;;;;;;;3.63;3.30;;;;;;;;;;10449285;28;20072;-82
2022/07/13 03:39:30;;;;;;;3.90;3.50;;;;;;;;;;10453802;28;20149;-81
2022/07/13 03:44:36;;;;;;;3.78;3.45;;;;;;;;;;10448288;28;20121;-80
2022/07/13 03:49:38;;;;;;;3.60;3.30;;;;;;;;;;10436427;28;20041;-84
2022/07/13 03:54:39;;;;;;;3.60;3.30;;;;;;;;;;10468484;28;20086;-82
2022/07/13 03:59:48;;;;;;;3.65;3.15;;;;;;;;;;10428719;28;20087;-81
2022/07/13 04:04:51;;;;;;;3.97;3.67;;;;;;;;;;10442247;28;20037;-81
2022/07/13 04:09:59;;;;;;;3.47;3.17;;;;;;;;;;10446114;28;20124;-81
2022/07/13 04:15:00;;;;;;;3.45;3.15;;;;;;;;;;10424654;28;20067;-84
2022/07/13 04:20:02;;;;;;;3.85;3.55;;;;;;;;;;10446174;28;20534;-79
2022/07/13 04:25:04;;;;;;;3.65;3.35;;;;;;;;;;10443648;28;20044;-81
2022/07/13 04:30:07;;;;;;;4.40;3.90;;;;;;;;;;10449011;28;20079;-83
2022/07/13 04:35:09;;;;;;;3.92;3.60;;;;;;;;;;10430856;28;20048;-83
2022/07/13 04:40:29;;;;;;;4.13;3.72;;;;;;;;;;10455981;28;20057;-86
2022/07/13 04:45:49;;;;;;;4.00;3.70;;;;;;;;;;10466707;28;20113;-88
2022/07/13 04:50:58;;;;;;;3.88;3.40;;;;;;;;;;10470143;28;20031;-88
2022/07/13 04:56:09;;;;;;;3.47;3.17;;;;;;;;;;10477658;28;20036;-86
2022/07/13 05:01:47;;;;;;;3.85;3.55;;;;;;;;;;10476249;28;20033;-88
2022/07/13 05:06:49;;;;;;;4.57;3.78;;;;;;;;;;10451497;28;20040;-84
2022/07/13 05:12:20;;;;;;;3.60;3.10;;;;;;;;;;10439912;28;20028;-88
2022/07/13 05:18:08;;;;;;;4.13;3.50;;;;;;;;;;10297080;28;20038;-85
2022/07/13 05:24:01;;;;;;;5.22;3.83;;;;;;;;;;10314577;28;20050;-86
2022/07/13 05:34:29;;;;;;;7.13;3.70;;;;;;;;;;10517600;28;20464;-87
2022/07/13 05:39:42;;;;;;;4.07;3.67;;;;;;;;;;10491350;28;20067;-79
2022/07/13 05:44:43;;;;;;;4.18;3.80;;;;;;;;;;10498433;28;20096;-86
2022/07/13 05:50:08;;;;;;;4.35;3.90;;;;;;;;;;10485391;28;20053;-86
2022/07/13 05:55:11;;;;;;;3.92;3.55;;;;;;;;;;10445487;28;20041;-83
2022/07/13 06:00:13;;;;;;;6.38;3.40;;;;;;;;;;10547085;28;20056;-82
2022/07/13 06:05:23;;;;;;;3.00;2.80;;;;;;;;;;10525097;28;20051;-83
2022/07/13 06:10:27;;;;;;;3.50;3.20;;;;;;;;;;10483705;28;20036;-82
2022/07/13 06:15:27;;;;;;;4.40;3.40;;;;;;;;;;10503180;28;20301;-80
2022/07/13 06:20:28;;;;;;;4.10;3.15;;;;;;;;;;10475304;28;20197;-78
2022/07/13 06:25:28;;;;;;;3.53;3.23;;;;;;;;;;10474079;28;20505;-77
2022/07/13 06:30:29;;;;;;;4.07;3.23;;;;;;;;;;10461433;28;20674;-76
2022/07/13 06:35:29;;;;;;;3.70;3.35;;;;;;;;;;10479287;28;20278;-78
2022/07/13 06:40:30;;;;;;;3.70;3.42;;;;;;;;;;10482417;28;20531;-76
2022/07/13 06:45:30;;;;;;;3.30;3.00;;;;;;;;;;10479922;28;20384;-76
2022/07/13 06:50:31;;;;;;;3.08;2.80;;;;;;;;;;10478495;28;20052;-81
2022/07/13 06:55:31;;;;;;;4.28;3.05;;;;;;;;;;10481395;28;20048;-80
2022/07/13 07:00:32;;;;;;;4.50;3.08;;;;;;;;;;10477134;28;20075;-81
2022/07/13 07:05:32;;;;;;;4.32;3.08;;;;;;;;;;10466945;28;20049;-78
2022/07/13 07:10:33;;;;;;;3.03;2.77;;;;;;;;;;10466823;28;20047;-77
2022/07/13 07:15:33;;;;;;;3.23;2.67;;;;;;;;;;10465242;28;20291;-77
2022/07/13 07:20:34;;;;;;;4.32;3.38;;;;;;;;;;10470121;28;20276;-77
2022/07/13 07:25:34;;;;;;;6.97;3.60;;;;;;;;;;10472330;28;20073;-75
2022/07/13 07:30:35;;;;;;;5.60;3.08;;;;;;;;;;10478417;28;20367;-77
2022/07/13 07:35:35;;;;;;;4.28;2.80;;;;;;;;;;10473937;28;20071;-76
2022/07/13 07:40:35;;;;;;;4.13;3.00;;;;;;;;;;10463860;28;20055;-76
2022/07/13 07:45:36;;;;;;;5.27;2.93;;;;;;;;;;10476726;28;20060;-75
2022/07/13 07:50:40;;;;;;;5.93;3.13;;;;;;;;;;10486432;28;20283;-84
2022/07/13 07:55:42;;;;;;;4.32;3.25;;;;;;;;;;10526695;28;20042;-84
2022/07/13 08:00:43;;;;;;;6.32;3.53;;;;;;;;;;10520982;28;20094;-83
2022/07/13 08:05:48;;;;;;;5.82;3.40;;;;;;;;;;10525744;28;20041;-84
2022/07/13 08:10:54;;;;;;;3.38;3.08;;;;;;;;;;10527658;28;20070;-84
2022/07/13 08:15:57;;;;;;;4.95;2.90;;;;;;;;;;10511938;28;20041;-85
2022/07/13 08:20:57;;;;;;;3.22;2.70;;;;;;;;;;10509301;28;20052;-84
2022/07/13 08:25:58;;;;;;;5.27;3.00;;;;;;;;;;10509217;28;20112;-83
2022/07/13 08:30:58;;;;;;;4.27;2.60;;;;;;;;;;10516041;28;20330;-82
2022/07/13 08:41:17;;;;;;;5.57;2.80;;;;;;;;;;10497975;28;20134;-83
2022/07/13 08:46:21;;;;;;;6.90;4.47;;;;;;;;;;10479865;28;20375;-83
2022/07/13 08:51:25;;;;;;;3.45;2.47;;;;;;;;;;10485385;28;20087;-82
2022/07/13 08:56:25;;;;;;;3.40;3.10;;;;;;;;;;10475728;28;20517;-82
2022/07/13 09:01:27;;;;;;;4.53;3.23;;;;;;;;;;10512065;28;20067;-83
2022/07/13 09:06:47;;;;;;;8.00;6.38;;;;;;;;;;10498546;28;20279;-82
2022/07/13 09:11:50;;;;;;;2.70;2.50;;;;;;;;;;10494896;28;20032;-85
2022/07/13 09:16:52;;;;;;;3.42;2.55;;;;;;;;;;10489726;28;20099;-83
2022/07/13 09:22:15;;;;;;;3.55;2.28;;;;;;;;;;10474653;28;20052;-82
2022/07/13 09:27:15;;;;;;;4.47;3.13;;;;;;;;;;10466014;28;20052;-84
2022/07/13 09:32:17;;;;;;;100.13;86.25;;;;;;;;;;10515797;28;20134;-85
2022/07/13 09:37:22;;;;;;;4.07;3.67;;;;;;;;;;10528193;28;20053;-83
2022/07/13 09:42:27;;;;;;;3.58;2.42;;;;;;;;;;10533080;28;20048;-82
2022/07/13 09:47:28;;;;;;;3.30;2.90;;;;;;;;;;10507429;28;20472;-84
2022/07/13 09:52:31;;;;;;;2.27;2.07;;;;;;;;;;10514832;28;20024;-83
2022/07/13 09:57:36;;;;;;;3.03;2.83;;;;;;;;;;10514051;28;20071;-84
2022/07/13 10:02:40;;;;;;;3.35;2.78;;;;;;;;;;10509895;28;20044;-82
2022/07/13 10:07:43;;;;;;;2.92;2.10;;;;;;;;;;10495779;28;20037;-81
2022/07/13 10:12:43;;;;;;;2.30;2.10;;;;;;;;;;10499962;28;20083;-80
2022/07/13 10:17:48;;;;;;;2.43;2.23;;;;;;;;;;10483710;28;20052;-83
2022/07/13 10:22:48;;;;;;;1.77;1.58;;;;;;;;;;10490709;28;20041;-83
2022/07/13 10:28:02;;;;;;;1.40;1.30;;;;;;;;;;10511431;27;20566;-82
2022/07/13 10:33:21;;;;;;;2.38;2.17;;;;;;;;;;10489647;28;20140;-82
2022/07/13 10:38:27;;;;;;;3.05;2.70;;;;;;;;;;10460812;28;20057;-82
2022/07/13 10:43:27;;;;;;;1.60;1.35;;;;;;;;;;10483968;28;20064;-81
2022/07/13 10:48:37;;;;;;;1.30;1.20;;;;;;;;;;10495471;28;20029;-81
2022/07/13 10:53:37;;;;;;;2.13;1.92;;;;;;;;;;10487266;28;20124;-81
2022/07/13 10:58:42;;;;;;;2.10;1.40;;;;;;;;;;10494320;28;20541;-83
2022/07/13 11:03:48;;;;;;;2.33;1.40;;;;;;;;;;10502086;28;20044;-83
2022/07/13 11:09:07;;;;;;;2.70;1.50;;;;;;;;;;10510955;28;20055;-81
2022/07/13 11:14:27;;;;;;;4.47;2.13;;;;;;;;;;10520509;28;20078;-85
2022/07/13 11:19:50;;;;;;;2.10;1.80;;;;;;;;;;10521908;28;20072;-84
2022/07/13 11:30:13;;;;;;;2.20;1.10;;;;;;;;;;10484251;28;20044;-85
2022/07/13 11:35:14;;;;;;;1.40;1.30;;;;;;;;;;10494840;28;20140;-82
2022/07/13 11:40:31;;;;;;;1.30;1.20;;;;;;;;;;10502517;28;20120;-82
2022/07/13 11:45:32;;;;;;;3.05;1.88;;;;;;;;;;10492002;28;20500;-83
2022/07/13 11:50:48;;;;;;;3.00;1.63;;;;;;;;;;10500920;28;20040;-85
2022/07/13 11:55:52;;;;;;;1.30;1.20;;;;;;;;;;10518432;28;20063;-83
2022/07/13 12:00:54;;;;;;;2.08;1.40;;;;;;;;;;10516607;28;20067;-84
2022/07/13 12:06:00;;;;;;;1.58;1.10;;;;;;;;;;10519099;27;20155;-82
2022/07/13 12:11:01;;;;;;;2.72;1.30;;;;;;;;;;10476596;28;20033;-82
2022/07/13 12:16:03;;;;;;;3.30;1.90;;;;;;;;;;10493442;28;20103;-81
2022/07/13 12:21:03;;;;;;;;;;;;;;;;;;10496368;28;20053;-83
2022/07/13 12:26:07;;;;;;;2.95;2.08;;;;;;;;;;10488380;28;19921;-80
2022/07/13 12:31:09;;;;;;;2.10;1.00;;;;;;;;;;10500286;28;20140;-83
2022/07/13 12:36:11;;;;;;;1.93;1.60;;;;;;;;;;10499345;28;20040;-84
2022/07/13 12:41:30;;;;;;;2.05;1.70;;;;;;;;;;10531207;28;20361;-83
2022/07/13 12:46:47;;;;;;;1.42;1.17;;;;;;;;;;10508248;28;20048;-82
2022/07/13 12:51:52;;;;;;;1.88;1.40;;;;;;;;;;10501050;28;20056;-81
2022/07/13 12:56:54;;;;;;;4.03;3.28;;;;;;;;;;10471330;28;20082;-82
2022/07/13 13:01:54;;;;;;;2.20;1.27;;;;;;;;;;10480086;28;20349;-80
2022/07/13 13:06:55;;;;;;;1.70;1.60;;;;;;;;;;10466730;28;20118;-80
2022/07/13 13:11:57;;;;;;;4.13;3.73;;;;;;;;;;10495776;28;20082;-81
2022/07/13 13:16:57;;;;;;;2.65;1.33;;;;;;;;;;10488548;28;20051;-81
2022/07/13 13:21:59;;;;;;;4.68;3.92;;;;;;;;;;10504640;28;20097;-83
2022/07/13 13:27:02;;;;;;;1.05;0.80;;;;;;;;;;10485238;28;20079;-84
2022/07/13 13:32:02;;;;;;;3.08;1.17;;;;;;;;;;10491112;28;20348;-81
2022/07/13 13:37:04;;;;;;;1.85;1.00;;;;;;;;;;10515461;28;20190;-82
2022/07/13 13:42:06;;;;;;;2.25;1.20;;;;;;;;;;10442642;28;20376;-81
2022/07/13 13:47:09;;;;;;;0.90;0.90;;;;;;;;;;10480088;28;20538;-82
2022/07/13 13:52:17;;;;;;;1.63;1.30;;;;;;;;;;10476704;28;20079;-80
2022/07/13 13:57:17;;;;;;;2.00;1.30;;;;;;;;;;10470392;28;20064;-81
2022/07/13 14:02:19;;;;;;;1.23;1.10;;;;;;;;;;10514228;28;20274;-81
2022/07/13 14:07:20;;;;;;;3.13;0.90;;;;;;;;;;10504781;28;20056;-82
2022/07/13 14:12:22;;;;;;;1.77;1.20;;;;;;;;;;10509154;28;20071;-84
2022/07/13 14:17:25;;;;;;;1.67;1.52;;;;;;;;;;10511705;28;20036;-84
2022/07/13 14:22:25;;;;;;;5.53;1.10;;;;;;;;;;10504645;28;20084;-83
2022/07/13 14:27:27;;;;;;;3.70;3.10;;;;;;;;;;10511485;28;20041;-82
2022/07/13 14:32:29;;;;;;;1.98;1.20;;;;;;;;;;10511838;28;20088;-85
2022/07/13 14:37:32;;;;;;;0.90;0.80;;;;;;;;;;10510684;28;20048;-81
2022/07/13 14:42:32;;;;;;;1.30;0.85;;;;;;;;;;10509700;28;20106;-84
2022/07/13 14:47:33;;;;;;;1.10;0.90;;;;;;;;;;10506882;28;20049;-82
2022/07/13 14:52:33;;;;;;;1.03;0.83;;;;;;;;;;10479569;28;20190;-81
2022/07/13 14:57:33;;;;;;;2.10;1.17;;;;;;;;;;10481911;28;20045;-82
2022/07/13 15:02:35;;;;;;;3.53;1.05;;;;;;;;;;10494162;28;20063;-80
2022/07/13 15:07:35;;;;;;;1.10;0.73;;;;;;;;;;10491528;28;20517;-82
2022/07/13 15:12:37;;;;;;;;;;;;;;;;;;10462989;28;20054;-80
2022/07/13 15:17:40;;;;;;;1.20;1.10;;;;;;;;;;10501416;28;20439;-81
2022/07/13 15:22:40;;;;;;;1.00;0.80;;;;;;;;;;10501590;28;20048;-80
2022/07/13 15:27:40;;;;;;;;;;;;;;;;;;10495226;28;20048;-80
2022/07/13 15:32:41;;;;;;;0.75;0.70;;;;;;;;;;10515474;28;19927;-83
2022/07/13 15:37:42;;;;;;;2.17;1.00;;;;;;;;;;10508979;28;20036;-82
2022/07/13 15:42:43;;;;;;;0.85;0.82;;;;;;;;;;10500532;28;20083;-80
2022/07/13 15:47:43;;;;;;;;;;;;;;;;;;10499592;28;20268;-80
2022/07/13 15:52:44;;;;;;;2.35;1.40;;;;;;;;;;10508676;28;19912;-80
2022/07/13 15:57:45;;;;;;;1.20;1.00;;;;;;;;;;10515389;28;20079;-83
2022/07/13 16:02:47;;;;;;;;;;;;;;;;;;10492883;28;20045;-83
2022/07/13 16:07:50;;;;;;;1.30;1.20;;;;;;;;;;10495680;28;19919;-83
2022/07/13 16:12:50;;;;;;;4.38;2.47;;;;;;;;;;10473071;28;20052;-81
2022/07/13 16:17:52;;;;;;;;;;;;;;;;;;10468150;28;20124;-81
2022/07/13 16:22:53;;;;;;;0.90;0.70;;;;;;;;;;10484247;28;19928;-82
2022/07/13 16:27:56;;;;;;;1.40;0.90;;;;;;;;;;10506115;28;20095;-81
2022/07/13 16:32:56;;;;;;;3.33;0.70;;;;;;;;;;10497305;28;20070;-83
2022/07/13 16:37:57;;;;;;;5.47;3.47;;;;;;;;;;10469535;28;20056;-82
2022/07/13 16:42:59;;;;;;;4.23;2.07;;;;;;;;;;10480684;28;20032;-82
2022/07/13 16:48:01;;;;;;;3.13;2.13;;;;;;;;;;10487551;28;20051;-81
2022/07/13 16:53:02;;;;;;;1.90;1.67;;;;;;;;;;10504046;28;20385;-80
2022/07/13 16:58:03;;;;;;;0.80;0.80;;;;;;;;;;10472267;28;20131;-82
2022/07/13 17:03:03;;;;;;;4.80;3.20;;;;;;;;;;10478679;28;20082;-82
2022/07/13 17:08:04;;;;;;;2.30;1.80;;;;;;;;;;10478162;28;20066;-82
2022/07/13 17:13:04;;;;;;;4.65;2.67;;;;;;;;;;10474221;28;20056;-84
2022/07/13 17:18:05;;;;;;;3.42;1.27;;;;;;;;;;10488424;28;20428;-82
2022/07/13 17:23:07;;;;;;;2.83;2.50;;;;;;;;;;10486827;28;20052;-83
2022/07/13 17:28:07;;;;;;;2.75;1.80;;;;;;;;;;10473501;28;20057;-83
2022/07/13 17:33:09;;;;;;;3.40;2.80;;;;;;;;;;10485307;28;20061;-82
2022/07/13 17:38:11;;;;;;;6.85;4.18;;;;;;;;;;10507002;28;20053;-82
2022/07/13 17:43:12;;;;;;;6.80;4.68;;;;;;;;;;10503251;28;20045;-82
2022/07/13 17:48:12;;;;;;;5.57;3.60;;;;;;;;;;10482458;28;20066;-80
2022/07/13 17:53:14;;;;;;;1.73;1.10;;;;;;;;;;10485713;28;20160;-81
2022/07/13 17:58:14;;;;;;;1.73;1.30;;;;;;;;;;10514328;28;20025;-86
2022/07/13 18:03:14;;;;;;;1.30;1.20;;;;;;;;;;10499386;28;20044;-83
2022/07/13 18:08:15;;;;;;;5.13;3.50;;;;;;;;;;10514332;28;20056;-83
2022/07/13 18:13:17;;;;;;;5.33;2.57;;;;;;;;;;10513387;28;20131;-81
2022/07/13 18:18:21;;;;;;;2.28;1.33;;;;;;;;;;10501810;28;20049;-80
2022/07/13 18:28:40;;;;;;;3.38;2.47;;;;;;;;;;10488180;28;20059;-79
2022/07/13 18:33:41;;;;;;;4.30;3.57;;;;;;;;;;10478198;28;20040;-79
2022/07/13 18:38:43;;;;;;;3.40;2.90;;;;;;;;;;10483693;28;20053;-82
2022/07/13 18:43:44;;;;;;;3.05;1.98;;;;;;;;;;10494352;28;20055;-83
2022/07/13 18:48:47;;;;;;;3.40;2.15;;;;;;;;;;10505007;28;20324;-82
2022/07/13 18:53:51;;;;;;;3.45;2.10;;;;;;;;;;10510141;28;20099;-82
2022/07/13 18:58:53;;;;;;;4.43;2.20;;;;;;;;;;10508124;28;20109;-84
2022/07/13 19:03:53;;;;;;;2.77;1.83;;;;;;;;;;10515712;28;20044;-82
2022/07/13 19:08:53;;;;;;;3.20;2.10;;;;;;;;;;10484072;28;20064;-82
2022/07/13 19:13:56;;;;;;;3.97;2.13;;;;;;;;;;10493708;28;20045;-82
2022/07/13 19:19:01;;;;;;;2.90;2.45;;;;;;;;;;10493461;28;20480;-83
2022/07/13 19:24:02;;;;;;;3.35;2.72;;;;;;;;;;10502704;28;20045;-83
2022/07/13 19:29:03;;;;;;;4.80;3.22;;;;;;;;;;10492109;28;20148;-83
2022/07/13 19:34:06;;;;;;;4.63;3.37;;;;;;;;;;10475143;28;20044;-82
2022/07/13 19:39:07;;;;;;;4.95;3.60;;;;;;;;;;10502108;28;20087;-80
2022/07/13 19:44:07;;;;;;;4.55;3.65;;;;;;;;;;10497869;28;20045;-83
2022/07/13 19:49:10;;;;;;;4.37;3.20;;;;;;;;;;10507215;28;20095;-85
2022/07/13 19:54:13;;;;;;;4.75;2.83;;;;;;;;;;10501367;28;20052;-81
2022/07/13 19:59:21;;;;;;;2.58;2.25;;;;;;;;;;10497947;28;20064;-83
2022/07/13 20:04:21;;;;;;;2.63;2.20;;;;;;;;;;10495330;28;20115;-83
2022/07/13 20:09:24;;;;;;;2.97;2.00;;;;;;;;;;10500327;28;20107;-84
2022/07/13 20:14:26;;;;;;;2.60;2.00;;;;;;;;;;10502809;28;20041;-86
2022/07/13 20:19:31;;;;;;;2.17;1.70;;;;;;;;;;10475543;28;20043;-81
2022/07/13 20:24:32;;;;;;;3.38;1.85;;;;;;;;;;10495238;28;20095;-81
2022/07/13 20:29:32;;;;;;;2.28;1.92;;;;;;;;;;10511642;28;20119;-82
2022/07/13 20:34:35;;;;;;;2.70;2.13;;;;;;;;;;10488627;28;20065;-83
2022/07/13 20:39:37;;;;;;;2.22;2.00;;;;;;;;;;10487620;28;20052;-84
2022/07/13 20:44:39;;;;;;;3.75;1.50;;;;;;;;;;10496962;28;20052;-81
2022/07/13 20:49:39;;;;;;;2.03;1.58;;;;;;;;;;10484805;28;20147;-82
2022/07/13 20:54:39;;;;;;;2.17;1.50;;;;;;;;;;10483484;28;20045;-84
2022/07/13 20:59:41;;;;;;;1.63;1.42;;;;;;;;;;10484655;28;20041;-83
2022/07/13 21:04:46;;;;;;;2.60;2.03;;;;;;;;;;10492437;28;20054;-84
2022/07/13 21:09:47;;;;;;;1.60;1.50;;;;;;;;;;10491926;28;20033;-82
2022/07/13 21:14:51;;;;;;;1.88;1.60;;;;;;;;;;10490055;28;20048;-82
2022/07/13 21:19:51;;;;;;;4.43;2.25;;;;;;;;;;10491689;28;20052;-82
2022/07/13 21:24:52;;;;;;;2.20;1.90;;;;;;;;;;10491860;28;20113;-81
2022/07/13 21:29:53;;;;;;;3.47;2.00;;;;;;;;;;10487326;28;20299;-82
2022/07/13 21:34:57;;;;;;;2.97;2.03;;;;;;;;;;10493968;28;20566;-83
2022/07/13 21:39:58;;;;;;;3.00;1.83;;;;;;;;;;10494706;28;20028;-79
2022/07/13 21:44:58;;;;;;;2.38;1.90;;;;;;;;;;10503547;28;20041;-82
2022/07/13 21:49:59;;;;;;;3.50;2.63;;;;;;;;;;10491921;28;20071;-80
2022/07/13 21:54:59;;;;;;;3.78;2.53;;;;;;;;;;10510815;28;20272;-84
2022/07/13 22:00:00;;;;;;;3.23;2.43;;;;;;;;;;10487158;28;20060;-83
2022/07/13 22:05:10;;;;;;;3.50;2.28;;;;;;;;;;10507379;28;20131;-81
2022/07/13 22:10:29;;;;;;;3.00;2.28;;;;;;;;;;10471420;28;20083;-81
2022/07/13 22:15:49;;;;;;;3.90;1.90;;;;;;;;;;10491416;28;20052;-80
2022/07/13 22:21:08;;;;;;;2.58;2.03;;;;;;;;;;10473153;28;20124;-83
2022/07/13 22:26:26;;;;;;;3.35;2.25;;;;;;;;;;10496783;28;20108;-83
2022/07/13 22:31:46;;;;;;;3.38;2.33;;;;;;;;;;10493010;28;20075;-80
2022/07/13 22:37:05;;;;;;;3.95;2.30;;;;;;;;;;10471927;28;20064;-84
2022/07/13 22:42:25;;;;;;;3.85;2.33;;;;;;;;;;10474006;28;20051;-80
2022/07/13 22:47:44;;;;;;;3.80;2.92;;;;;;;;;;10459120;28;20053;-81
2022/07/13 22:53:05;;;;;;;2.30;2.10;;;;;;;;;;10491584;28;20061;-82
2022/07/13 22:58:24;;;;;;;5.60;3.10;;;;;;;;;;10474841;28;20087;-85
2022/07/13 23:03:43;;;;;;;2.58;2.03;;;;;;;;;;10498764;28;20055;-82
2022/07/13 23:09:03;;;;;;;2.00;1.73;;;;;;;;;;10489519;28;20471;-83
2022/07/13 23:14:22;;;;;;;1.77;1.67;;;;;;;;;;10498123;28;20053;-82
2022/07/13 23:19:43;;;;;;;2.08;1.88;;;;;;;;;;10496819;28;20112;-88
2022/07/13 23:25:07;;;;;;;3.33;1.70;;;;;;;;;;10515709;28;20055;-83
2022/07/13 23:30:15;;;;;;;2.78;1.80;;;;;;;;;;10489255;28;20060;-83
2022/07/13 23:35:16;;;;;;;2.20;2.00;;;;;;;;;;10499580;28;20041;-82
2022/07/13 23:40:22;;;;;;;2.30;1.60;;;;;;;;;;10517155;28;20056;-84
2022/07/13 23:45:23;;;;;;;3.05;1.98;;;;;;;;;;10491855;28;20045;-77
2022/07/13 23:50:23;;;;;;;2.70;1.90;;;;;;;;;;10472989;28;20060;-78
2022/07/13 23:55:23;;;;;;;2.75;2.10;;;;;;;;;;10470226;28;20128;-78
